Bezoek ook deze websites:

Mijn andere website

Weerstation Noordbergum

Weerstation in Leuven


U vindt ons ook hier:

Weather Underground


METAR rapporten vliegvelden

   
EHGG - Groningen/Eelde, Netherlands
Afstand tot: ONO 18 km
Gewijzigd: 18-11-2019 14:25
Bewolking  
Bewolking  
   Wind: NNW 14.8 km/h
Wind: NNW 14.8 km/h
Temperatuur: 8°C
Voelt als: 6°C
Dauwpunt: 6°C
Vochtigheid: 87%
Barometer: 1005 hPa
Bewolking: Bewolking
Zicht: meer dan 10 km
Bewolking: Gedeeltelijk bewolkt 2100 ft,
Bewolking 2400 ft
EHGG 181325Z AUTO 34008KT 290V020 9999 SCT021 OVC024 08/06 Q1005 TEMPO 7000 -RADZ BKN012
EHLW - Leeuwarden Rnlaf, Netherlands
Afstand tot: WNW 45 km
Gewijzigd: 18-11-2019 14:25
Bewolking  
Bewolking  
   Wind: Noorden 24.1 km/h
Wind: Noorden 24.1 km/h
Temperatuur: 9°C
Voelt als: 6°C
Dauwpunt: 7°C
Vochtigheid: 87%
Barometer: 1006 hPa
Bewolking: Bewolking
Zicht: meer dan 10 km
Bewolking: Licht bewolkt 2200 ft,
Gedeeltelijk bewolkt 2700 ft,
Bewolking 3000 ft
EHLW 181325Z AUTO 01013KT 320V030 9999 FEW022 SCT027 OVC030 09/07 Q1006 BLU 36013KT 9999 SCT025 BKN050 TEMPO 4500 RADZ FEW010 SCT015 BKN020
EHVL - Vlieland Island, Netherlands
Afstand tot: WNW 98 km
Gewijzigd: 18-11-2019 14:29
Grotendeels bewolkt  
Grotendeels bewolkt  
   Wind: NNW 33.3 km/h
Wind: NNW 33.3 km/h
Temperatuur: 10°C
Voelt als: 6°C
Dauwpunt: 6°C
Vochtigheid: 76%
Barometer: 1007 hPa
Bewolking: Grotendeels bewolkt
Zicht: meer dan 10 km
Bewolking: Licht bewolkt 1900 ft,
Gedeeltelijk bewolkt 2600 ft,
Grotendeels bewolkt 3500 ft
EHVL 181329Z AUTO 34018KT 9999 FEW019 SCT026 BKN035 10/06 Q1007 BLU
EHKD - De Kooy (navy), Netherlands
Afstand tot: W 106 km
Gewijzigd: 18-11-2019 14:25
Bewolking  
Bewolking  
   Wind: NNW 11.1 km/h
Wind: NNW 11.1 km/h
Temperatuur: 9°C
Voelt als: 7°C
Dauwpunt: 7°C
Vochtigheid: 87%
Barometer: 1007 hPa
Bewolking: Bewolking
Zicht: meer dan 10 km
Bewolking: Licht bewolkt 700 ft,
Grotendeels bewolkt 2900 ft,
Bewolking 3200 ft
EHKD 181325Z AUTO 33006KT 290V020 9999 FEW007 BKN029 OVC032 09/07 Q1007 BLU 35005KT 9999 FEW012 OVC020
EHDL - Deelen Rnlafb, Netherlands
Afstand tot: ZZW 112 km
Gewijzigd: 18-11-2019 14:25
Grotendeels bewolkt  
Grotendeels bewolkt  
   Wind: NW 11.1 km/h
Wind: NW 11.1 km/h
Temperatuur: 7°C
Voelt als: 5°C
Dauwpunt: 7°C
Vochtigheid: 100%
Barometer: 1006 hPa
Bewolking: Grotendeels bewolkt
Zicht: meer dan 10 km
Bewolking: Licht bewolkt 900 ft,
Gedeeltelijk bewolkt 1100 ft,
Grotendeels bewolkt 1300 ft
EHDL 181325Z AUTO 31006KT 260V040 9999 FEW009 SCT011 BKN013 07/07 Q1006 GRN
EHAM - Amsterdam/Schiph, Netherlands
Afstand tot: ZW 132 km
Gewijzigd: 18-11-2019 14:25
Lichte (mot)regen, Regen, Grotendeels bewolkt  
Lichte (mot)regen, Regen, Grotendeels bewolkt  
   Wind: NW 9.3 km/h
Wind: NW 9.3 km/h
Temperatuur: 8°C
Voelt als: 7°C
Dauwpunt: 7°C
Vochtigheid: 93%
Barometer: 1008 hPa
Bewolking: Grotendeels bewolkt
Zicht: 7 km
Bewolking: Licht bewolkt 700 ft,
Gedeeltelijk bewolkt 1000 ft,
Grotendeels bewolkt 1700 ft
EHAM 181325Z 32005KT 300V020 7000 -DZRA FEW007 SCT010 BKN017 08/07 Q1008 TEMPO 4000 BKN010

Script ontwikkeld door  Saratoga-weather.org Aangepast voor de template door  Weerstation Leuven

Apparatuur in gebruik:

Weerstation
Davis VP2

Weerprogramma
Meteobridge

Weercomputer
TP-link TL-MR3020

Webleverancier
Versio

Davis VP2

Meteobridge

TP-link TL-MR3020

Versio